首页
METAR-TAF:

METAR-TAF

机场 :

Schaffen

迪斯特, 比利时

纬度: 51-00N, 经度: 005-04E, 海拔: 30米

当前天气观测

该预报发布于34分钟前的09:03 UTC
风速6节,风向西
温度 14°C
湿度 67%
气压 1019 hPa
能见度10公里或以上

METAR: EBDT 250903Z AUTO 28006KT 9999 SCT020/// BKN055/// BKN080/// 14/08 Q1019 WHT

时间: 11:37 (09:37 UTC)

预报

该预报发布于17小时和56分钟前的15:41 UTC
预报有效从24日的 19点(UTC)到 25日的 07点(UTC)
风速9节,风向西北
能见度10公里或以上
少量云层高于5000英尺
成为
从 24日的 20点(UTC)到 24日的 22点(UTC)
风速4节,风向西北
少量云层高于8500英尺
几率 30% :
短暂存在
从 25日的 04点(UTC)到 25日的 06点(UTC)
能見度: 4000
轻雾

TAF: EBDT 241541Z 2419/2507 32009KT 9999 FEW050 BECMG 2420/2422 32004KT FEW085 PROB30 TEMPO 2504/2506 4000 BR

超过4000个机场的气象观测和天气预报(METAR&TAF报告)。

可查询的气象台以黄色和红色小点在地图上表示。

将鼠标移到小点上方,可查看气象台名称。

然后点击查看天气观测和预报。

如需切换地图:点击带黑十字的绿色按钮放大地图;点击带横线的绿色按钮缩小地图;或者点击绿色箭头查看邻近地区的地图。


METAR-TAF: